createdAt,value
2023-05-12T00:00:14.680Z,1017.56
2023-05-12T00:00:46.593Z,1017.56
2023-05-12T00:01:17.508Z,1017.56
2023-05-12T00:01:48.452Z,1017.57
2023-05-12T00:02:19.359Z,1017.57
2023-05-12T00:02:50.399Z,1017.58
2023-05-12T00:03:20.914Z,1017.58
2023-05-12T00:03:51.612Z,1017.59
2023-05-12T00:04:22.182Z,1017.60
2023-05-12T00:04:52.765Z,1017.60
2023-05-12T00:05:23.252Z,1017.60
2023-05-12T00:05:54.171Z,1017.60
2023-05-12T00:06:25.087Z,1017.60
2023-05-12T00:06:55.991Z,1017.60
2023-05-12T00:07:26.901Z,1017.61
2023-05-12T00:07:57.802Z,1017.61
2023-05-12T00:08:28.715Z,1017.61
2023-05-12T00:08:58.255Z,1017.61
2023-05-12T00:09:30.185Z,1017.61
2023-05-12T00:10:01.124Z,1017.61
2023-05-12T00:10:32.084Z,1017.61
2023-05-12T00:11:01.979Z,1017.60
2023-05-12T00:11:34.223Z,1017.60
2023-05-12T00:12:04.614Z,1017.60
2023-05-12T00:12:35.611Z,1017.59
2023-05-12T00:13:06.510Z,1017.59
2023-05-12T00:13:37.441Z,1017.59
2023-05-12T00:14:06.987Z,1017.58
2023-05-12T00:14:38.924Z,1017.58
2023-05-12T00:15:08.626Z,1017.57
2023-05-12T00:15:40.578Z,1017.56
2023-05-12T00:16:11.451Z,1017.56
2023-05-12T00:16:41.992Z,1017.56
2023-05-12T00:17:12.934Z,1017.55
2023-05-12T00:17:43.888Z,1017.54
2023-05-12T00:18:14.761Z,1017.54
2023-05-12T00:19:16.565Z,1017.53
2023-05-12T00:19:47.460Z,1017.53
2023-05-12T00:20:18.208Z,1017.53
2023-05-12T00:20:50.778Z,1017.53
2023-05-12T00:21:19.653Z,1017.53
2023-05-12T00:21:50.572Z,1017.52
2023-05-12T00:22:21.515Z,1017.52
2023-05-12T00:22:52.478Z,1017.52
2023-05-12T00:23:23.373Z,1017.52
2023-05-12T00:23:54.285Z,1017.51
2023-05-12T00:24:25.217Z,1017.51
2023-05-12T00:24:56.091Z,1017.51
2023-05-12T00:25:27.001Z,1017.51
2023-05-12T00:25:57.914Z,1017.51
2023-05-12T00:26:28.815Z,1017.51
2023-05-12T00:26:59.725Z,1017.51
2023-05-12T00:27:30.623Z,1017.50
2023-05-12T00:28:01.545Z,1017.50
2023-05-12T00:28:32.467Z,1017.50
2023-05-12T00:29:03.382Z,1017.49
2023-05-12T00:29:34.280Z,1017.49
2023-05-12T00:30:05.173Z,1017.49
2023-05-12T00:30:36.089Z,1017.48
2023-05-12T00:31:07.046Z,1017.48
2023-05-12T00:31:38.012Z,1017.47
2023-05-12T00:32:08.932Z,1017.47
2023-05-12T00:32:39.860Z,1017.47
2023-05-12T00:33:10.794Z,1017.46
2023-05-12T00:33:41.690Z,1017.45
2023-05-12T00:34:13.534Z,1017.45
2023-05-12T00:34:43.471Z,1017.44
2023-05-12T00:35:14.403Z,1017.43
2023-05-12T00:35:45.295Z,1017.42
2023-05-12T00:36:47.126Z,1017.40
2023-05-12T00:37:18.011Z,1017.39
2023-05-12T00:37:48.937Z,1017.39
2023-05-12T00:38:19.824Z,1017.38
2023-05-12T00:38:50.735Z,1017.38
2023-05-12T00:39:21.632Z,1017.37
2023-05-12T00:39:52.530Z,1017.37
2023-05-12T00:40:23.450Z,1017.36
2023-05-12T00:40:54.260Z,1017.36
2023-05-12T00:41:25.153Z,1017.36
2023-05-12T00:41:56.041Z,1017.36
2023-05-12T00:42:26.968Z,1017.35
2023-05-12T00:42:56.480Z,1017.36
2023-05-12T00:43:28.408Z,1017.36
2023-05-12T00:43:57.961Z,1017.36
2023-05-12T00:44:29.893Z,1017.36
2023-05-12T00:45:00.797Z,1017.37
2023-05-12T00:45:31.788Z,1017.37
2023-05-12T00:46:02.262Z,1017.37
2023-05-12T00:46:32.742Z,1017.37
2023-05-12T00:47:03.627Z,1017.37
2023-05-12T00:47:34.602Z,1017.36
2023-05-12T00:48:05.435Z,1017.36
2023-05-12T00:48:36.355Z,1017.36
2023-05-12T00:49:38.103Z,1017.35
2023-05-12T00:50:09.011Z,1017.34
2023-05-12T00:50:39.928Z,1017.34
2023-05-12T00:51:10.822Z,1017.34
2023-05-12T00:51:41.710Z,1017.34
2023-05-12T00:52:11.697Z,1017.34
2023-05-12T00:52:43.617Z,1017.34
2023-05-12T00:53:14.515Z,1017.33
2023-05-12T00:53:49.718Z,1017.33
2023-05-12T00:54:16.024Z,1017.34
2023-05-12T00:54:46.957Z,1017.33
2023-05-12T00:55:17.855Z,1017.33
2023-05-12T00:55:48.747Z,1017.33
2023-05-12T00:56:19.656Z,1017.33
2023-05-12T00:56:50.550Z,1017.33
2023-05-12T00:57:20.093Z,1017.33
2023-05-12T00:57:51.983Z,1017.33
2023-05-12T00:58:22.867Z,1017.32
2023-05-12T00:58:53.778Z,1017.32
2023-05-12T00:59:24.682Z,1017.32
2023-05-12T00:59:55.492Z,1017.31
2023-05-12T01:00:26.405Z,1017.31
2023-05-12T01:00:57.332Z,1017.30
2023-05-12T01:01:28.387Z,1017.31
2023-05-12T01:01:58.831Z,1017.30
2023-05-12T01:02:32.318Z,1017.30
2023-05-12T01:03:00.372Z,1017.30
2023-05-12T01:03:31.019Z,1017.29
2023-05-12T01:04:01.482Z,1017.29
2023-05-12T01:04:32.380Z,1017.29
2023-05-12T01:05:03.306Z,1017.29
2023-05-12T01:05:34.212Z,1017.29
2023-05-12T01:06:05.132Z,1017.29
2023-05-12T01:06:36.084Z,1017.29
2023-05-12T01:07:08.013Z,1017.30
2023-05-12T01:07:37.792Z,1017.30
2023-05-12T01:08:08.718Z,1017.30
2023-05-12T01:08:39.621Z,1017.30
2023-05-12T01:09:09.324Z,1017.30
2023-05-12T01:09:41.237Z,1017.30
2023-05-12T01:10:12.147Z,1017.30
2023-05-12T01:10:43.091Z,1017.29
2023-05-12T01:11:13.993Z,1017.29
2023-05-12T01:11:44.926Z,1017.29
2023-05-12T01:12:15.824Z,1017.28
2023-05-12T01:12:46.758Z,1017.28
2023-05-12T01:13:17.704Z,1017.27
2023-05-12T01:13:48.593Z,1017.27
2023-05-12T01:14:19.486Z,1017.26
2023-05-12T01:14:50.377Z,1017.27
2023-05-12T01:15:21.273Z,1017.27
2023-05-12T01:15:52.218Z,1017.27
2023-05-12T01:16:23.120Z,1017.27
2023-05-12T01:16:54.063Z,1017.27
2023-05-12T01:17:25.043Z,1017.27
2023-05-12T01:17:55.493Z,1017.27
2023-05-12T01:18:26.503Z,1017.27
2023-05-12T01:18:57.092Z,1017.28
2023-05-12T01:19:27.572Z,1017.27
2023-05-12T01:19:58.534Z,1017.27
2023-05-12T01:20:29.430Z,1017.27
2023-05-12T01:21:00.324Z,1017.27
2023-05-12T01:21:31.216Z,1017.27
2023-05-12T01:22:02.108Z,1017.26
2023-05-12T01:22:33.022Z,1017.26
2023-05-12T01:23:03.932Z,1017.26
2023-05-12T01:23:34.833Z,1017.26
2023-05-12T01:24:05.715Z,1017.25
2023-05-12T01:24:36.651Z,1017.24
2023-05-12T01:25:07.597Z,1017.24
2023-05-12T01:25:38.075Z,1017.24
2023-05-12T01:26:08.999Z,1017.24
2023-05-12T01:26:38.528Z,1017.24
2023-05-12T01:27:10.467Z,1017.24
2023-05-12T01:28:12.274Z,1017.24
2023-05-12T01:28:43.205Z,1017.24
2023-05-12T01:29:14.135Z,1017.25
2023-05-12T01:29:45.029Z,1017.25
2023-05-12T01:30:15.966Z,1017.25
2023-05-12T01:30:46.922Z,1017.25
2023-05-12T01:31:17.922Z,1017.25
2023-05-12T01:31:48.521Z,1017.26
2023-05-12T01:32:50.346Z,1017.26
2023-05-12T01:33:21.119Z,1017.25
2023-05-12T01:33:52.013Z,1017.25
2023-05-12T01:34:22.905Z,1017.25
2023-05-12T01:34:53.719Z,1017.25
2023-05-12T01:35:24.640Z,1017.25
2023-05-12T01:35:55.550Z,1017.24
2023-05-12T01:36:25.464Z,1017.24
2023-05-12T01:36:57.372Z,1017.24
2023-05-12T01:37:28.274Z,1017.24
2023-05-12T01:37:59.194Z,1017.24
2023-05-12T01:38:30.122Z,1017.24
2023-05-12T01:39:01.032Z,1017.25
2023-05-12T01:39:31.940Z,1017.25
2023-05-12T01:40:02.875Z,1017.25
2023-05-12T01:40:33.805Z,1017.26
2023-05-12T01:41:04.726Z,1017.27
2023-05-12T01:41:35.642Z,1017.28
2023-05-12T01:42:06.559Z,1017.28
2023-05-12T01:42:37.489Z,1017.29
2023-05-12T01:43:08.422Z,1017.30
2023-05-12T01:43:39.335Z,1017.30
2023-05-12T01:44:10.144Z,1017.30
2023-05-12T01:44:41.105Z,1017.31
2023-05-12T01:45:12.046Z,1017.30
2023-05-12T01:45:42.931Z,1017.30
2023-05-12T01:46:13.878Z,1017.30
2023-05-12T01:46:44.860Z,1017.30
2023-05-12T01:47:15.357Z,1017.30
2023-05-12T01:47:46.269Z,1017.30
2023-05-12T01:48:17.372Z,1017.30
2023-05-12T01:48:47.748Z,1017.30
2023-05-12T01:49:18.654Z,1017.30
2023-05-12T01:50:20.670Z,1017.30
2023-05-12T01:50:51.255Z,1017.30
2023-05-12T01:51:22.194Z,1017.30
2023-05-12T01:51:53.108Z,1017.30
2023-05-12T01:52:24.034Z,1017.30
2023-05-12T01:52:54.957Z,1017.31
2023-05-12T01:53:25.875Z,1017.30
2023-05-12T01:53:56.781Z,1017.31
2023-05-12T01:54:27.698Z,1017.31
2023-05-12T01:54:58.626Z,1017.31
2023-05-12T01:55:29.522Z,1017.31
2023-05-12T01:55:59.075Z,1017.31
2023-05-12T01:56:30.988Z,1017.31
2023-05-12T01:57:01.913Z,1017.31
2023-05-12T01:57:32.826Z,1017.31
2023-05-12T01:58:03.715Z,1017.31
2023-05-12T01:58:34.637Z,1017.31
2023-05-12T01:59:04.207Z,1017.32
2023-05-12T01:59:36.142Z,1017.32
2023-05-12T02:00:07.114Z,1017.32
2023-05-12T02:00:38.040Z,1017.32
2023-05-12T02:01:08.933Z,1017.32
2023-05-12T02:01:39.860Z,1017.33
2023-05-12T02:02:10.876Z,1017.33
2023-05-12T02:03:12.113Z,1017.33
2023-05-12T02:03:42.862Z,1017.34
2023-05-12T02:04:13.462Z,1017.34
2023-05-12T02:04:43.990Z,1017.34
2023-05-12T02:05:14.898Z,1017.34
2023-05-12T02:05:45.829Z,1017.34
2023-05-12T02:06:16.753Z,1017.34
2023-05-12T02:06:47.707Z,1017.34
2023-05-12T02:07:17.542Z,1017.34
2023-05-12T02:07:49.482Z,1017.34
2023-05-12T02:08:20.386Z,1017.34
2023-05-12T02:08:51.363Z,1017.34
2023-05-12T02:09:22.310Z,1017.35
2023-05-12T02:09:53.208Z,1017.35
2023-05-12T02:10:24.010Z,1017.36
2023-05-12T02:10:54.905Z,1017.36
2023-05-12T02:11:25.826Z,1017.37
2023-05-12T02:11:56.743Z,1017.38
2023-05-12T02:12:27.678Z,1017.38
2023-05-12T02:12:57.284Z,1017.38
2023-05-12T02:13:29.215Z,1017.39
2023-05-12T02:14:00.150Z,1017.39
2023-05-12T02:14:31.085Z,1017.40
2023-05-12T02:15:02.011Z,1017.39
2023-05-12T02:16:03.857Z,1017.40
2023-05-12T02:16:34.420Z,1017.40
2023-05-12T02:17:04.849Z,1017.40
2023-05-12T02:17:35.761Z,1017.40
2023-05-12T02:18:06.658Z,1017.41
2023-05-12T02:18:37.673Z,1017.41
2023-05-12T02:19:08.257Z,1017.41
2023-05-12T02:19:38.691Z,1017.41
2023-05-12T02:20:09.585Z,1017.41
2023-05-12T02:20:40.477Z,1017.41
2023-05-12T02:21:11.383Z,1017.41
2023-05-12T02:21:42.315Z,1017.40
2023-05-12T02:22:13.216Z,1017.40
2023-05-12T02:22:44.154Z,1017.39
2023-05-12T02:23:15.081Z,1017.39
2023-05-12T02:23:46.004Z,1017.38
2023-05-12T02:24:16.965Z,1017.38
2023-05-12T02:24:47.901Z,1017.37
2023-05-12T02:25:18.788Z,1017.37
2023-05-12T02:25:49.705Z,1017.37
2023-05-12T02:26:20.622Z,1017.37
2023-05-12T02:26:51.517Z,1017.36
2023-05-12T02:27:22.459Z,1017.36
2023-05-12T02:27:53.365Z,1017.35
2023-05-12T02:28:22.897Z,1017.34
2023-05-12T02:28:54.829Z,1017.33
2023-05-12T02:29:25.737Z,1017.33
2023-05-12T02:29:56.548Z,1017.32
2023-05-12T02:30:27.454Z,1017.32
2023-05-12T02:30:58.371Z,1017.32
2023-05-12T02:31:29.215Z,1017.32
2023-05-12T02:32:00.184Z,1017.32
2023-05-12T02:32:30.690Z,1017.32
2023-05-12T02:33:32.553Z,1017.33
2023-05-12T02:34:05.755Z,1017.33
2023-05-12T02:34:33.184Z,1017.33
2023-05-12T02:35:03.715Z,1017.34
2023-05-12T02:35:35.618Z,1017.34
2023-05-12T02:36:06.563Z,1017.34
2023-05-12T02:36:37.490Z,1017.34
2023-05-12T02:37:08.423Z,1017.34
2023-05-12T02:37:39.330Z,1017.34
2023-05-12T02:38:10.252Z,1017.34
2023-05-12T02:38:39.771Z,1017.34
2023-05-12T02:39:11.684Z,1017.34
2023-05-12T02:39:42.611Z,1017.34
2023-05-12T02:40:13.529Z,1017.34
2023-05-12T02:40:44.423Z,1017.34
2023-05-12T02:41:15.403Z,1017.33
2023-05-12T02:41:45.808Z,1017.33
2023-05-12T02:42:16.753Z,1017.33
2023-05-12T02:42:47.640Z,1017.32
2023-05-12T02:43:18.644Z,1017.31
2023-05-12T02:43:49.542Z,1017.31
2023-05-12T02:44:20.468Z,1017.30
2023-05-12T02:44:51.375Z,1017.29
2023-05-12T02:45:22.282Z,1017.29
2023-05-12T02:46:24.208Z,1017.28
2023-05-12T02:46:54.676Z,1017.27
2023-05-12T02:47:25.597Z,1017.26
2023-05-12T02:47:56.557Z,1017.26
2023-05-12T02:48:27.497Z,1017.26
2023-05-12T02:48:58.406Z,1017.25
2023-05-12T02:49:29.320Z,1017.25
2023-05-12T02:50:00.289Z,1017.25
2023-05-12T02:50:31.200Z,1017.25
2023-05-12T02:51:02.106Z,1017.25
2023-05-12T02:51:33.032Z,1017.25
2023-05-12T02:52:03.963Z,1017.25
2023-05-12T02:52:34.877Z,1017.25
2023-05-12T02:53:05.780Z,1017.25
2023-05-12T02:53:36.704Z,1017.24
2023-05-12T02:54:07.632Z,1017.25
2023-05-12T02:54:38.538Z,1017.24
2023-05-12T02:55:09.448Z,1017.23
2023-05-12T02:55:40.374Z,1017.23
2023-05-12T02:56:11.274Z,1017.23
2023-05-12T02:56:40.860Z,1017.22
2023-05-12T02:57:12.773Z,1017.22
2023-05-12T02:57:43.691Z,1017.22
2023-05-12T02:58:14.601Z,1017.21
2023-05-12T02:58:45.511Z,1017.21
2023-05-12T02:59:16.472Z,1017.21
2023-05-12T02:59:47.375Z,1017.20
2023-05-12T03:00:18.439Z,1017.20
2023-05-12T03:00:56.939Z,1017.20
2023-05-12T03:01:19.799Z,1017.21
2023-05-12T03:01:50.772Z,1017.21
2023-05-12T03:02:21.750Z,1017.21
2023-05-12T03:02:52.776Z,1017.21
2023-05-12T03:03:54.178Z,1017.21
2023-05-12T03:04:25.093Z,1017.22
2023-05-12T03:04:56.020Z,1017.22
2023-05-12T03:05:26.968Z,1017.22
2023-05-12T03:05:57.858Z,1017.23
2023-05-12T03:06:28.738Z,1017.23
2023-05-12T03:06:59.659Z,1017.23
2023-05-12T03:07:30.579Z,1017.24
2023-05-12T03:08:01.477Z,1017.24
2023-05-12T03:08:32.423Z,1017.24
2023-05-12T03:09:03.314Z,1017.23
2023-05-12T03:09:32.835Z,1017.24
2023-05-12T03:10:04.803Z,1017.24
2023-05-12T03:10:35.712Z,1017.24
2023-05-12T03:11:06.635Z,1017.24
2023-05-12T03:11:37.440Z,1017.24
2023-05-12T03:12:08.342Z,1017.24
2023-05-12T03:12:39.276Z,1017.24
2023-05-12T03:13:10.196Z,1017.24
2023-05-12T03:13:41.088Z,1017.24
2023-05-12T03:14:11.993Z,1017.24
2023-05-12T03:14:42.925Z,1017.24
2023-05-12T03:15:13.817Z,1017.24
2023-05-12T03:15:43.342Z,1017.24
2023-05-12T03:16:15.501Z,1017.25
2023-05-12T03:16:46.045Z,1017.25
2023-05-12T03:17:16.965Z,1017.25
2023-05-12T03:17:47.897Z,1017.26
2023-05-12T03:18:18.707Z,1017.26
2023-05-12T03:18:49.658Z,1017.26
2023-05-12T03:19:20.638Z,1017.27
2023-05-12T03:19:51.548Z,1017.28
2023-05-12T03:20:22.743Z,1017.28
2023-05-12T03:21:24.191Z,1017.29
2023-05-12T03:21:55.066Z,1017.30
2023-05-12T03:22:25.905Z,1017.30
2023-05-12T03:22:55.879Z,1017.30
2023-05-12T03:23:27.771Z,1017.30
2023-05-12T03:23:58.679Z,1017.30
2023-05-12T03:24:30.763Z,1017.30
2023-05-12T03:24:59.093Z,1017.30
2023-05-12T03:25:30.983Z,1017.30
2023-05-12T03:26:01.913Z,1017.30
2023-05-12T03:26:32.802Z,1017.30
2023-05-12T03:27:03.700Z,1017.30
2023-05-12T03:27:34.550Z,1017.30
2023-05-12T03:28:05.397Z,1017.30
2023-05-12T03:28:36.247Z,1017.30
2023-05-12T03:29:07.106Z,1017.30
2023-05-12T03:29:37.977Z,1017.30
2023-05-12T03:30:08.829Z,1017.29
2023-05-12T03:30:39.592Z,1017.29
2023-05-12T03:31:10.508Z,1017.29
2023-05-12T03:31:41.433Z,1017.29
2023-05-12T03:32:12.302Z,1017.29
2023-05-12T03:32:43.216Z,1017.29
2023-05-12T03:33:14.087Z,1017.28
2023-05-12T03:34:15.760Z,1017.28
2023-05-12T03:34:46.624Z,1017.28
2023-05-12T03:35:17.481Z,1017.28
2023-05-12T03:35:48.323Z,1017.28
2023-05-12T03:36:19.201Z,1017.27
2023-05-12T03:36:50.041Z,1017.27
2023-05-12T03:37:20.876Z,1017.27
2023-05-12T03:37:51.746Z,1017.26
2023-05-12T03:38:22.616Z,1017.25
2023-05-12T03:38:52.573Z,1017.24
2023-05-12T03:39:24.419Z,1017.24
2023-05-12T03:39:55.284Z,1017.23
2023-05-12T03:40:26.151Z,1017.23
2023-05-12T03:40:56.995Z,1017.22
2023-05-12T03:41:26.593Z,1017.21
2023-05-12T03:41:58.442Z,1017.21
2023-05-12T03:42:29.206Z,1017.21
2023-05-12T03:43:00.057Z,1017.20
2023-05-12T03:43:30.939Z,1017.20
2023-05-12T03:44:01.786Z,1017.20
2023-05-12T03:44:32.664Z,1017.20
2023-05-12T03:45:03.561Z,1017.20
2023-05-12T03:45:34.399Z,1017.20
2023-05-12T03:46:05.370Z,1017.20
2023-05-12T03:46:36.283Z,1017.21
2023-05-12T03:47:07.282Z,1017.21
2023-05-12T03:47:36.950Z,1017.21
2023-05-12T03:48:08.477Z,1017.21
2023-05-12T03:48:39.347Z,1017.22
2023-05-12T03:49:10.022Z,1017.22
2023-05-12T03:49:40.765Z,1017.22
2023-05-12T03:50:11.603Z,1017.22
2023-05-12T03:50:42.481Z,1017.23
2023-05-12T03:51:13.356Z,1017.22
2023-05-12T03:51:44.240Z,1017.22
2023-05-12T03:52:15.081Z,1017.23
2023-05-12T03:52:45.947Z,1017.23
2023-05-12T03:53:16.878Z,1017.24
2023-05-12T03:53:46.829Z,1017.24
2023-05-12T03:54:18.680Z,1017.25
2023-05-12T03:54:49.550Z,1017.25
2023-05-12T03:55:20.400Z,1017.25
2023-05-12T03:55:51.293Z,1017.26
2023-05-12T03:56:22.066Z,1017.26
2023-05-12T03:56:52.916Z,1017.26
2023-05-12T03:57:23.764Z,1017.25
2023-05-12T03:57:54.672Z,1017.25
2023-05-12T03:58:25.517Z,1017.25
2023-05-12T03:58:56.361Z,1017.24
2023-05-12T03:59:27.234Z,1017.23
2023-05-12T03:59:58.093Z,1017.22
2023-05-12T04:00:28.941Z,1017.22
2023-05-12T04:00:59.782Z,1017.22
2023-05-12T04:01:29.744Z,1017.22
2023-05-12T04:02:01.741Z,1017.22
2023-05-12T04:02:32.340Z,1017.21
2023-05-12T04:03:03.007Z,1017.21
2023-05-12T04:03:33.674Z,1017.21
2023-05-12T04:04:04.596Z,1017.20
2023-05-12T04:04:35.437Z,1017.20
2023-05-12T04:05:06.301Z,1017.20
2023-05-12T04:05:37.165Z,1017.19
2023-05-12T04:06:08.061Z,1017.19
2023-05-12T04:06:38.911Z,1017.18
2023-05-12T04:07:09.773Z,1017.18
2023-05-12T04:07:40.640Z,1017.18
2023-05-12T04:08:11.492Z,1017.18
2023-05-12T04:08:42.379Z,1017.18
2023-05-12T04:09:13.236Z,1017.18
2023-05-12T04:09:44.104Z,1017.18
2023-05-12T04:10:14.944Z,1017.18
2023-05-12T04:10:45.796Z,1017.18
2023-05-12T04:11:16.549Z,1017.18
2023-05-12T04:11:46.496Z,1017.18
2023-05-12T04:12:18.345Z,1017.17
2023-05-12T04:12:49.255Z,1017.18
2023-05-12T04:13:19.923Z,1017.17
2023-05-12T04:13:50.785Z,1017.17
2023-05-12T04:14:29.025Z,1017.17
2023-05-12T04:14:52.423Z,1017.17
2023-05-12T04:15:23.262Z,1017.17
2023-05-12T04:15:54.125Z,1017.18
2023-05-12T04:16:25.052Z,1017.18
2023-05-12T04:16:56.085Z,1017.19
2023-05-12T04:17:26.593Z,1017.19
2023-05-12T04:17:57.563Z,1017.20
2023-05-12T04:18:28.592Z,1017.21
2023-05-12T04:18:58.133Z,1017.21
2023-05-12T04:19:30.018Z,1017.22
2023-05-12T04:20:00.859Z,1017.22
2023-05-12T04:20:31.707Z,1017.23
2023-05-12T04:21:02.567Z,1017.23
2023-05-12T04:21:33.414Z,1017.23
2023-05-12T04:22:04.268Z,1017.24
2023-05-12T04:22:35.161Z,1017.24
2023-05-12T04:23:06.013Z,1017.24
2023-05-12T04:23:36.873Z,1017.25
2023-05-12T04:24:07.752Z,1017.26
2023-05-12T04:24:38.606Z,1017.27
2023-05-12T04:25:09.451Z,1017.27
2023-05-12T04:25:40.310Z,1017.28
2023-05-12T04:26:11.188Z,1017.29
2023-05-12T04:26:42.041Z,1017.29
2023-05-12T04:27:11.621Z,1017.30
2023-05-12T04:27:43.514Z,1017.31
2023-05-12T04:28:14.372Z,1017.31
2023-05-12T04:28:45.225Z,1017.32
2023-05-12T04:29:16.077Z,1017.32
2023-05-12T04:29:46.910Z,1017.33
2023-05-12T04:30:17.819Z,1017.34
2023-05-12T04:30:48.730Z,1017.34
2023-05-12T04:31:19.615Z,1017.35
2023-05-12T04:31:50.543Z,1017.35
2023-05-12T04:32:20.097Z,1017.36
2023-05-12T04:32:52.012Z,1017.37
2023-05-12T04:33:22.889Z,1017.38
2023-05-12T04:33:54.796Z,1017.38
2023-05-12T04:34:23.353Z,1017.39
2023-05-12T04:34:55.189Z,1017.40
2023-05-12T04:35:26.039Z,1017.40
2023-05-12T04:35:56.000Z,1017.41
2023-05-12T04:36:27.873Z,1017.42
2023-05-12T04:36:58.738Z,1017.43
2023-05-12T04:37:29.568Z,1017.43
2023-05-12T04:38:00.259Z,1017.44
2023-05-12T04:38:31.115Z,1017.45
2023-05-12T04:39:01.956Z,1017.45
2023-05-12T04:39:31.909Z,1017.45
2023-05-12T04:40:03.754Z,1017.45
2023-05-12T04:40:35.223Z,1017.45
2023-05-12T04:41:04.734Z,1017.46
2023-05-12T04:42:05.455Z,1017.45
2023-05-12T04:42:37.331Z,1017.45
2023-05-12T04:43:08.183Z,1017.45
2023-05-12T04:44:09.823Z,1017.46
2023-05-12T04:44:40.669Z,1017.46
2023-05-12T04:45:11.537Z,1017.46
2023-05-12T04:45:42.440Z,1017.46
2023-05-12T04:46:13.344Z,1017.46
2023-05-12T04:46:44.253Z,1017.46
2023-05-12T04:47:15.149Z,1017.46
2023-05-12T04:47:45.169Z,1017.46
2023-05-12T04:48:17.042Z,1017.46
2023-05-12T04:48:47.896Z,1017.46
2023-05-12T04:49:17.858Z,1017.46
2023-05-12T04:49:49.703Z,1017.46
2023-05-12T04:50:20.553Z,1017.46
2023-05-12T04:50:51.395Z,1017.45
2023-05-12T04:51:23.369Z,1017.44
2023-05-12T04:51:52.168Z,1017.44
2023-05-12T04:52:24.876Z,1017.43
2023-05-12T04:52:54.832Z,1017.43
2023-05-12T04:53:25.692Z,1017.43
2023-05-12T04:53:56.528Z,1017.43
2023-05-12T04:54:27.386Z,1017.43
2023-05-12T04:54:57.348Z,1017.43
2023-05-12T04:56:00.131Z,1017.43
2023-05-12T04:56:31.000Z,1017.44
2023-05-12T04:57:01.865Z,1017.44
2023-05-12T04:57:32.727Z,1017.44
2023-05-12T04:58:03.586Z,1017.45
2023-05-12T04:58:34.480Z,1017.45
2023-05-12T04:59:05.310Z,1017.46
2023-05-12T04:59:36.161Z,1017.46
2023-05-12T05:00:07.025Z,1017.46
2023-05-12T05:00:37.770Z,1017.48
2023-05-12T05:01:08.628Z,1017.48
2023-05-12T05:01:39.517Z,1017.49
2023-05-12T05:02:10.450Z,1017.50
2023-05-12T05:02:41.380Z,1017.51
2023-05-12T05:03:12.019Z,1017.52
2023-05-12T05:03:42.536Z,1017.53
2023-05-12T05:04:13.381Z,1017.54
2023-05-12T05:04:44.253Z,1017.54
2023-05-12T05:05:15.110Z,1017.54
2023-05-12T05:05:45.968Z,1017.55
2023-05-12T05:06:16.816Z,1017.55
2023-05-12T05:06:47.662Z,1017.56
2023-05-12T05:07:18.510Z,1017.56
2023-05-12T05:07:49.270Z,1017.56
2023-05-12T05:08:20.147Z,1017.57
2023-05-12T05:08:51.019Z,1017.58
2023-05-12T05:09:21.885Z,1017.58
2023-05-12T05:09:52.726Z,1017.58
2023-05-12T05:10:23.597Z,1017.58
2023-05-12T05:10:54.472Z,1017.59
2023-05-12T05:11:25.337Z,1017.59
2023-05-12T05:11:56.178Z,1017.60
2023-05-12T05:12:27.048Z,1017.60
2023-05-12T05:12:57.884Z,1017.60
2023-05-12T05:13:28.788Z,1017.60
2023-05-12T05:13:59.634Z,1017.61
2023-05-12T05:14:30.382Z,1017.61
2023-05-12T05:15:01.234Z,1017.62
2023-05-12T05:15:32.135Z,1017.62
2023-05-12T05:16:03.043Z,1017.62
2023-05-12T05:16:33.885Z,1017.62
2023-05-12T05:17:04.745Z,1017.62
2023-05-12T05:17:35.647Z,1017.62
2023-05-12T05:18:06.551Z,1017.62
2023-05-12T05:18:37.425Z,1017.62
2023-05-12T05:19:20.109Z,1017.62
2023-05-12T05:19:53.562Z,1017.61
2023-05-12T05:20:12.007Z,1017.61
2023-05-12T05:20:43.173Z,1017.61
2023-05-12T05:21:11.225Z,1017.61
2023-05-12T05:21:41.746Z,1017.62
2023-05-12T05:22:12.587Z,1017.62
2023-05-12T05:22:43.466Z,1017.62
2023-05-12T05:23:14.322Z,1017.63
2023-05-12T05:23:45.203Z,1017.63
2023-05-12T05:24:16.065Z,1017.64
2023-05-12T05:24:46.920Z,1017.64
2023-05-12T05:25:17.900Z,1017.64
2023-05-12T05:25:48.348Z,1017.65
2023-05-12T05:26:19.185Z,1017.65
2023-05-12T05:26:50.061Z,1017.66
2023-05-12T05:27:20.914Z,1017.66
2023-05-12T05:27:51.768Z,1017.66
2023-05-12T05:28:22.661Z,1017.66
2023-05-12T05:28:53.495Z,1017.66
2023-05-12T05:29:55.156Z,1017.66
2023-05-12T05:30:25.985Z,1017.67
2023-05-12T05:30:56.887Z,1017.67
2023-05-12T05:31:30.002Z,1017.67
2023-05-12T05:31:58.573Z,1017.67
2023-05-12T05:32:29.488Z,1017.68
2023-05-12T05:33:00.391Z,1017.68
2023-05-12T05:33:31.246Z,1017.69
2023-05-12T05:34:02.272Z,1017.70
2023-05-12T05:34:32.652Z,1017.70
2023-05-12T05:35:03.519Z,1017.72
2023-05-12T05:35:34.356Z,1017.72
2023-05-12T05:36:05.179Z,1017.73
2023-05-12T05:36:36.035Z,1017.74
2023-05-12T05:37:08.966Z,1017.74
2023-05-12T05:37:37.648Z,1017.74
2023-05-12T05:38:08.510Z,1017.75
2023-05-12T05:38:39.354Z,1017.75
2023-05-12T05:39:10.222Z,1017.75
2023-05-12T05:39:41.160Z,1017.75
2023-05-12T05:40:12.010Z,1017.75
2023-05-12T05:40:52.824Z,1017.75
2023-05-12T05:41:13.637Z,1017.76
2023-05-12T05:41:44.478Z,1017.75
2023-05-12T05:42:15.342Z,1017.75
2023-05-12T05:42:46.176Z,1017.75
2023-05-12T05:43:16.941Z,1017.75
2023-05-12T05:43:47.788Z,1017.74
2023-05-12T05:44:18.651Z,1017.74
2023-05-12T05:44:49.500Z,1017.73
2023-05-12T05:45:20.594Z,1017.73
2023-05-12T05:45:51.147Z,1017.72
2023-05-12T05:46:21.232Z,1017.72
2023-05-12T05:46:52.683Z,1017.72
2023-05-12T05:47:23.569Z,1017.72
2023-05-12T05:47:54.524Z,1017.72
2023-05-12T05:48:25.381Z,1017.72
2023-05-12T05:48:56.228Z,1017.72
2023-05-12T05:49:27.082Z,1017.72
2023-05-12T05:49:57.939Z,1017.73
2023-05-12T05:50:28.788Z,1017.73
2023-05-12T05:50:59.638Z,1017.73
2023-05-12T05:51:30.481Z,1017.73
2023-05-12T05:52:01.345Z,1017.73
2023-05-12T05:52:32.183Z,1017.73
2023-05-12T05:53:03.017Z,1017.73
2023-05-12T05:53:33.896Z,1017.73
2023-05-12T05:54:04.765Z,1017.73
2023-05-12T05:54:35.606Z,1017.73
2023-05-12T05:55:37.335Z,1017.72
2023-05-12T05:56:08.167Z,1017.72
2023-05-12T05:56:40.030Z,1017.72
2023-05-12T05:57:09.875Z,1017.72
2023-05-12T05:57:40.624Z,1017.73
2023-05-12T05:58:10.219Z,1017.73
2023-05-12T05:58:42.165Z,1017.73
2023-05-12T05:59:13.016Z,1017.73
2023-05-12T05:59:42.990Z,1017.73
2023-05-12T06:00:14.942Z,1017.74
2023-05-12T06:00:45.874Z,1017.74
2023-05-12T06:01:16.719Z,1017.74
2023-05-12T06:01:47.647Z,1017.75
2023-05-12T06:02:18.584Z,1017.75
2023-05-12T06:02:49.659Z,1017.76
2023-05-12T06:03:50.214Z,1017.76
2023-05-12T06:04:22.194Z,1017.76
2023-05-12T06:04:53.064Z,1017.76
2023-05-12T06:05:23.911Z,1017.77
2023-05-12T06:05:54.746Z,1017.77
2023-05-12T06:06:25.616Z,1017.77
2023-05-12T06:06:56.483Z,1017.78
2023-05-12T06:07:27.307Z,1017.78
2023-05-12T06:07:58.163Z,1017.79
2023-05-12T06:08:28.911Z,1017.79
2023-05-12T06:08:59.764Z,1017.79
2023-05-12T06:09:30.641Z,1017.80
2023-05-12T06:10:01.476Z,1017.80
2023-05-12T06:10:32.350Z,1017.80
2023-05-12T06:11:03.208Z,1017.81
2023-05-12T06:11:34.079Z,1017.81
2023-05-12T06:12:04.951Z,1017.82
2023-05-12T06:12:35.785Z,1017.82
2023-05-12T06:13:06.657Z,1017.82
2023-05-12T06:13:36.600Z,1017.82
2023-05-12T06:14:08.442Z,1017.82
2023-05-12T06:14:39.293Z,1017.83
2023-05-12T06:15:09.245Z,1017.83
2023-05-12T06:15:41.096Z,1017.83
2023-05-12T06:16:42.860Z,1017.84
2023-05-12T06:17:12.393Z,1017.84
2023-05-12T06:17:44.258Z,1017.85
2023-05-12T06:18:15.146Z,1017.85
2023-05-12T06:18:46.003Z,1017.86
2023-05-12T06:19:16.877Z,1017.86
2023-05-12T06:19:47.746Z,1017.86
2023-05-12T06:20:18.604Z,1017.87
2023-05-12T06:20:49.449Z,1017.87
2023-05-12T06:21:20.385Z,1017.87
2023-05-12T06:21:51.238Z,1017.87
2023-05-12T06:22:22.101Z,1017.88
2023-05-12T06:22:52.947Z,1017.87
2023-05-12T06:23:23.786Z,1017.88